Terminal Aerodrome Forecast
Issued by NWS Louisville, KY

Home | Current Version | Previous Version | Text Only | Print | Product List | Glossary On
Versions: 1 2 3 4 5 6 7 8 9 10 11 12 13 14 15
000
FTUS43 KLMK 151740
TAFSDF
TAF
KSDF 151740Z 1518/1624 28005KT P6SM SCT035 SCT050
     FM161300 VRB03KT P6SM VCSH SCT030 BKN100
     FM161600 18006KT P6SM -SHRA SCT030 BKN090=

USA.gov is the U.S. government's official web portal to all federal, state and local government web resources and services.